createdAt,value
2022-12-09T00:02:22.597Z,2.60
2022-12-09T00:04:49.888Z,2.60
2022-12-09T00:07:17.116Z,2.60
2022-12-09T00:09:44.012Z,2.60
2022-12-09T00:12:11.132Z,2.60
2022-12-09T00:14:38.109Z,2.60
2022-12-09T00:17:05.149Z,2.60
2022-12-09T00:19:34.504Z,2.60
2022-12-09T00:22:01.520Z,2.60
2022-12-09T00:24:28.577Z,2.60
2022-12-09T00:26:55.547Z,2.60
2022-12-09T00:29:22.401Z,2.60
2022-12-09T00:31:49.667Z,2.60
2022-12-09T00:34:16.754Z,2.70
2022-12-09T00:36:43.694Z,2.60
2022-12-09T00:39:12.732Z,2.60
2022-12-09T00:41:40.533Z,2.60
2022-12-09T00:44:08.337Z,2.60
2022-12-09T00:46:35.491Z,2.60
2022-12-09T00:49:04.530Z,2.60
2022-12-09T00:51:31.599Z,2.60
2022-12-09T00:53:58.930Z,2.60
2022-12-09T00:56:31.033Z,2.60
2022-12-09T00:58:59.914Z,2.60
2022-12-09T01:01:27.749Z,2.50
2022-12-09T01:03:55.330Z,2.50
2022-12-09T01:06:24.548Z,2.50
2022-12-09T01:08:52.210Z,2.50
2022-12-09T01:11:22.034Z,2.60
2022-12-09T01:13:50.544Z,2.60
2022-12-09T01:16:20.566Z,2.50
2022-12-09T01:18:47.971Z,2.40
2022-12-09T01:21:15.267Z,2.40
2022-12-09T01:23:42.445Z,2.40
2022-12-09T01:26:10.136Z,2.40
2022-12-09T01:28:38.902Z,2.40
2022-12-09T01:31:16.499Z,2.40
2022-12-09T01:33:43.668Z,2.30
2022-12-09T01:36:15.129Z,2.40
2022-12-09T01:38:42.483Z,2.40
2022-12-09T01:41:09.535Z,2.40
2022-12-09T01:43:38.793Z,2.40
2022-12-09T01:46:06.178Z,2.40
2022-12-09T01:48:38.396Z,2.40
2022-12-09T01:51:13.041Z,2.30
2022-12-09T01:53:44.621Z,2.20
2022-12-09T01:56:20.022Z,2.20
2022-12-09T01:58:48.522Z,2.20
2022-12-09T02:01:17.338Z,2.10
2022-12-09T02:03:44.707Z,2.10
2022-12-09T02:06:11.679Z,2.10
2022-12-09T02:08:38.762Z,2.10
2022-12-09T02:11:30.122Z,2.10
2022-12-09T02:14:06.142Z,2.00
2022-12-09T02:16:41.015Z,1.90
2022-12-09T02:19:14.340Z,1.90
2022-12-09T02:22:03.580Z,1.90
2022-12-09T02:25:01.411Z,1.80
2022-12-09T02:27:43.322Z,1.80
2022-12-09T02:30:21.432Z,1.70
2022-12-09T02:33:01.391Z,1.70
2022-12-09T02:35:42.783Z,1.60
2022-12-09T02:38:22.862Z,1.60
2022-12-09T02:41:03.594Z,1.60
2022-12-09T02:43:34.844Z,1.50
2022-12-09T02:46:04.437Z,1.50
2022-12-09T02:48:37.188Z,1.40
2022-12-09T02:51:09.741Z,1.40
2022-12-09T02:53:38.781Z,1.40
2022-12-09T02:56:08.320Z,1.40
2022-12-09T02:58:35.833Z,1.30
2022-12-09T03:01:02.931Z,1.30
2022-12-09T03:03:33.839Z,1.30
2022-12-09T03:06:14.460Z,1.20
2022-12-09T03:09:17.087Z,1.20
2022-12-09T03:11:44.955Z,1.20
2022-12-09T03:14:27.233Z,1.20
2022-12-09T03:17:00.498Z,1.10
2022-12-09T03:19:56.160Z,1.10
2022-12-09T03:22:29.555Z,1.00
2022-12-09T03:25:03.532Z,1.00
2022-12-09T03:27:37.227Z,1.00
2022-12-09T03:30:07.323Z,1.00
2022-12-09T03:32:37.688Z,1.10
2022-12-09T03:35:21.358Z,1.00
2022-12-09T03:37:51.289Z,1.00
2022-12-09T03:40:24.365Z,1.00
2022-12-09T03:43:14.605Z,1.00
2022-12-09T03:45:42.447Z,1.00
2022-12-09T03:48:10.946Z,1.00
2022-12-09T03:50:47.253Z,1.00
2022-12-09T03:53:18.547Z,0.90
2022-12-09T03:55:53.334Z,0.90
2022-12-09T03:58:20.493Z,0.90
2022-12-09T04:00:49.162Z,0.90
2022-12-09T04:03:18.762Z,0.90
2022-12-09T04:05:45.811Z,0.90
2022-12-09T04:08:12.980Z,0.90
2022-12-09T04:10:40.307Z,0.90
2022-12-09T04:13:07.396Z,0.90
2022-12-09T04:15:34.642Z,0.90
2022-12-09T04:18:01.693Z,0.90
2022-12-09T04:20:28.720Z,0.90
2022-12-09T04:22:56.396Z,0.90
2022-12-09T04:25:23.197Z,0.90
2022-12-09T04:27:50.445Z,1.00
2022-12-09T04:30:17.710Z,1.00
2022-12-09T04:32:45.042Z,1.00
2022-12-09T04:35:12.025Z,1.10
2022-12-09T04:37:39.040Z,1.10
2022-12-09T04:40:07.958Z,1.10
2022-12-09T04:42:35.344Z,1.10
2022-12-09T04:45:02.990Z,1.10
2022-12-09T04:47:30.016Z,1.20
2022-12-09T04:49:57.097Z,1.20
2022-12-09T04:52:24.035Z,1.30
2022-12-09T04:54:51.269Z,1.30
2022-12-09T04:57:18.921Z,1.20
2022-12-09T04:59:45.900Z,1.30
2022-12-09T05:02:13.622Z,1.30
2022-12-09T05:04:43.050Z,1.30
2022-12-09T05:07:11.765Z,1.30
2022-12-09T05:09:39.091Z,1.30
2022-12-09T05:12:06.447Z,1.30
2022-12-09T05:14:33.398Z,1.20
2022-12-09T05:17:00.775Z,1.30
2022-12-09T05:19:28.005Z,1.30
2022-12-09T05:21:55.192Z,1.20
2022-12-09T05:24:22.412Z,1.20
2022-12-09T05:26:49.567Z,1.20
2022-12-09T05:29:22.388Z,1.30
2022-12-09T05:31:51.736Z,1.20
2022-12-09T05:34:19.416Z,1.20
2022-12-09T05:36:46.853Z,1.20
2022-12-09T05:39:13.995Z,1.20
2022-12-09T05:41:41.188Z,1.30
2022-12-09T05:44:08.253Z,1.30
2022-12-09T05:46:35.314Z,1.30
2022-12-09T05:49:02.912Z,1.30
2022-12-09T05:51:30.742Z,1.30
2022-12-09T05:54:01.946Z,1.30
2022-12-09T05:56:29.164Z,1.40
2022-12-09T05:58:57.225Z,1.30
2022-12-09T06:01:25.954Z,1.40
2022-12-09T06:03:54.202Z,1.40
2022-12-09T06:06:23.942Z,1.30
2022-12-09T06:08:56.460Z,1.20
2022-12-09T06:11:24.041Z,1.20
2022-12-09T06:13:51.936Z,1.20
2022-12-09T06:16:21.438Z,1.20
2022-12-09T06:18:49.407Z,1.20
2022-12-09T06:21:18.407Z,1.20
2022-12-09T06:23:45.624Z,1.10
2022-12-09T06:26:27.627Z,1.10
2022-12-09T06:28:55.633Z,1.10
2022-12-09T06:31:23.405Z,1.00
2022-12-09T06:33:56.024Z,1.00
2022-12-09T06:36:26.089Z,1.00
2022-12-09T06:38:53.433Z,0.90
2022-12-09T06:41:20.670Z,0.90
2022-12-09T06:43:47.659Z,0.90
2022-12-09T06:46:17.179Z,0.90
2022-12-09T06:48:45.394Z,0.90
2022-12-09T06:51:12.892Z,0.90
2022-12-09T06:53:40.255Z,0.80
2022-12-09T06:56:12.123Z,0.80
2022-12-09T06:58:42.126Z,0.80
2022-12-09T07:01:14.793Z,0.80
2022-12-09T07:03:47.787Z,0.70
2022-12-09T07:06:36.356Z,0.70
2022-12-09T07:09:10.421Z,0.70
2022-12-09T07:11:37.848Z,0.70
2022-12-09T07:14:05.320Z,0.70
2022-12-09T07:16:32.818Z,0.70
2022-12-09T07:19:00.243Z,0.70
2022-12-09T07:21:28.411Z,0.70
2022-12-09T07:23:58.865Z,0.70
2022-12-09T07:26:26.221Z,0.70
2022-12-09T07:28:53.251Z,0.70
2022-12-09T07:31:29.654Z,0.70
2022-12-09T07:33:58.724Z,0.70
2022-12-09T07:36:28.790Z,0.70
2022-12-09T07:39:08.440Z,0.80
2022-12-09T07:41:35.954Z,0.80
2022-12-09T07:44:03.433Z,0.80
2022-12-09T07:46:30.805Z,0.80
2022-12-09T07:48:58.659Z,0.90
2022-12-09T07:51:26.045Z,0.90
2022-12-09T07:53:53.755Z,0.90
2022-12-09T07:56:22.388Z,1.00
2022-12-09T07:58:53.403Z,1.00
2022-12-09T08:01:26.932Z,1.00
2022-12-09T08:03:55.514Z,1.00
2022-12-09T08:06:25.077Z,1.10
2022-12-09T08:08:52.994Z,1.10
2022-12-09T08:11:23.475Z,1.10
2022-12-09T08:13:51.716Z,1.20
2022-12-09T08:16:21.561Z,1.30
2022-12-09T08:18:49.763Z,1.30
2022-12-09T08:21:21.224Z,1.30
2022-12-09T08:23:49.327Z,1.30
2022-12-09T08:26:18.683Z,1.40
2022-12-09T08:28:46.754Z,1.50
2022-12-09T08:31:16.919Z,1.60
2022-12-09T08:33:44.914Z,1.70
2022-12-09T08:36:19.188Z,1.70
2022-12-09T08:38:46.816Z,1.80
2022-12-09T08:41:22.982Z,1.90
2022-12-09T08:43:50.036Z,1.90
2022-12-09T08:46:17.131Z,1.90
2022-12-09T08:48:44.660Z,1.90
2022-12-09T08:51:12.521Z,1.90
2022-12-09T08:53:40.152Z,2.00
2022-12-09T08:56:09.688Z,2.00
2022-12-09T08:58:37.455Z,2.00
2022-12-09T09:01:05.589Z,2.10
2022-12-09T09:03:33.285Z,2.20
2022-12-09T09:06:09.577Z,2.20
2022-12-09T09:08:39.158Z,2.20
2022-12-09T09:11:20.661Z,2.30
2022-12-09T09:13:51.725Z,2.40
2022-12-09T09:16:21.793Z,2.40
2022-12-09T09:18:49.857Z,2.50
2022-12-09T09:21:20.317Z,2.50
2022-12-09T09:23:48.095Z,2.60
2022-12-09T09:26:17.878Z,2.60
2022-12-09T09:28:45.856Z,2.70
2022-12-09T09:31:15.328Z,2.80
2022-12-09T09:33:43.512Z,2.80
2022-12-09T09:36:14.885Z,3.00
2022-12-09T09:38:42.457Z,3.10
2022-12-09T09:41:33.377Z,3.30
2022-12-09T09:44:01.063Z,3.30
2022-12-09T09:46:36.353Z,3.40
2022-12-09T09:49:08.469Z,3.40
2022-12-09T09:51:36.037Z,3.50
2022-12-09T09:54:08.349Z,3.60
2022-12-09T09:56:43.956Z,3.70
2022-12-09T09:59:31.766Z,3.80
2022-12-09T10:02:19.638Z,3.70
2022-12-09T10:05:24.641Z,3.70
2022-12-09T10:07:57.313Z,3.80
2022-12-09T10:10:33.567Z,3.80
2022-12-09T10:13:43.184Z,3.80
2022-12-09T10:16:31.177Z,3.80
2022-12-09T10:19:32.001Z,3.90
2022-12-09T10:22:05.812Z,4.00
2022-12-09T10:24:40.107Z,4.00
2022-12-09T10:27:23.264Z,3.90
2022-12-09T10:30:07.440Z,3.80
2022-12-09T10:32:37.561Z,3.90
2022-12-09T10:35:20.000Z,3.90
2022-12-09T10:37:49.807Z,4.00
2022-12-09T10:40:21.397Z,4.10
2022-12-09T10:43:16.062Z,4.20
2022-12-09T10:48:47.979Z,4.30
2022-12-09T10:51:19.648Z,4.40
2022-12-09T10:53:57.055Z,4.50
2022-12-09T10:56:34.246Z,4.70
2022-12-09T10:59:13.711Z,4.80
2022-12-09T11:01:52.822Z,5.00
2022-12-09T11:04:41.808Z,4.90
2022-12-09T11:07:26.115Z,4.90
2022-12-09T11:10:00.714Z,5.00
2022-12-09T11:12:30.865Z,5.00
2022-12-09T11:15:12.881Z,4.90
2022-12-09T11:17:56.058Z,4.80
2022-12-09T11:20:27.607Z,4.70
2022-12-09T11:23:05.252Z,4.60
2022-12-09T11:25:35.376Z,4.50
2022-12-09T11:28:25.535Z,4.40
2022-12-09T11:31:27.889Z,4.40
2022-12-09T11:33:52.550Z,4.30
2022-12-09T11:36:29.856Z,4.20
2022-12-09T11:39:29.508Z,4.20
2022-12-09T11:42:25.829Z,4.20
2022-12-09T11:44:56.722Z,4.10
2022-12-09T11:50:36.561Z,4.00
2022-12-09T11:53:12.646Z,3.90
2022-12-09T11:55:49.459Z,3.90
2022-12-09T11:58:40.164Z,3.90
2022-12-09T12:01:32.384Z,4.00
2022-12-09T12:04:04.814Z,4.00
2022-12-09T12:06:47.225Z,3.90
2022-12-09T12:09:26.875Z,3.90
2022-12-09T12:12:13.953Z,3.90
2022-12-09T12:14:43.261Z,3.90
2022-12-09T12:17:26.023Z,3.80
2022-12-09T12:19:56.374Z,3.70
2022-12-09T12:22:55.032Z,3.70
2022-12-09T12:26:02.531Z,3.50
2022-12-09T12:28:41.554Z,3.50
2022-12-09T12:31:08.378Z,3.40
2022-12-09T12:34:07.646Z,3.40
2022-12-09T12:36:50.331Z,3.30
2022-12-09T12:39:35.903Z,3.30
2022-12-09T12:42:24.373Z,3.30
2022-12-09T12:45:12.843Z,3.30
2022-12-09T12:48:09.883Z,3.20
2022-12-09T12:50:38.781Z,3.20
2022-12-09T12:53:14.228Z,3.20
2022-12-09T12:55:51.120Z,3.20
2022-12-09T12:58:42.055Z,3.20
2022-12-09T13:01:40.357Z,3.20
2022-12-09T13:04:21.088Z,3.20
2022-12-09T13:06:54.709Z,3.20
2022-12-09T13:09:37.223Z,3.20
2022-12-09T13:12:15.592Z,3.20
2022-12-09T13:14:52.865Z,3.20
2022-12-09T13:17:29.466Z,3.10
2022-12-09T13:20:00.846Z,3.20
2022-12-09T13:22:47.651Z,3.30
2022-12-09T13:25:17.566Z,3.20
2022-12-09T13:28:04.062Z,3.20
2022-12-09T13:30:54.775Z,3.20
2022-12-09T13:33:28.766Z,3.30
2022-12-09T13:35:55.641Z,3.30
2022-12-09T13:38:40.719Z,3.30
2022-12-09T13:41:59.840Z,3.40
2022-12-09T13:44:32.566Z,3.40
2022-12-09T13:47:23.229Z,3.40
2022-12-09T13:50:02.490Z,3.40
2022-12-09T13:52:51.900Z,3.40
2022-12-09T13:55:48.315Z,3.50
2022-12-09T13:58:37.033Z,3.50
2022-12-09T14:01:16.961Z,3.50
2022-12-09T14:04:16.775Z,3.50
2022-12-09T14:06:46.410Z,3.50
2022-12-09T14:09:22.279Z,3.50
2022-12-09T14:11:56.954Z,3.50
2022-12-09T14:14:23.717Z,3.50
2022-12-09T14:17:16.712Z,3.60
2022-12-09T14:20:01.576Z,3.60
2022-12-09T14:22:31.287Z,3.60
2022-12-09T14:25:18.970Z,3.70
2022-12-09T14:28:11.935Z,3.70
2022-12-09T14:30:50.060Z,3.70
2022-12-09T14:33:35.333Z,3.70
2022-12-09T14:36:14.193Z,3.60
2022-12-09T14:41:54.879Z,3.50
2022-12-09T14:44:33.967Z,3.50
2022-12-09T14:47:18.592Z,3.50
2022-12-09T14:49:49.234Z,3.50
2022-12-09T14:52:30.213Z,3.40
2022-12-09T14:54:59.946Z,3.50
2022-12-09T14:57:32.409Z,3.40
2022-12-09T14:59:59.292Z,3.40
2022-12-09T15:02:31.854Z,3.40
2022-12-09T15:05:01.144Z,3.40
2022-12-09T15:07:32.779Z,3.40
2022-12-09T15:10:17.525Z,3.30
2022-12-09T15:12:50.596Z,3.30
2022-12-09T15:15:26.353Z,3.30
2022-12-09T15:18:13.394Z,3.30
2022-12-09T15:20:48.061Z,3.20
2022-12-09T15:23:23.807Z,3.30
2022-12-09T15:26:02.186Z,3.20
2022-12-09T15:28:31.588Z,3.20
2022-12-09T15:31:22.056Z,3.20
2022-12-09T15:34:00.334Z,3.10
2022-12-09T15:36:35.773Z,3.20
2022-12-09T15:39:18.209Z,3.10
2022-12-09T15:42:06.716Z,3.10
2022-12-09T15:44:53.509Z,3.10
2022-12-09T15:47:28.616Z,3.10
2022-12-09T15:50:22.583Z,3.10
2022-12-09T15:52:51.770Z,3.10
2022-12-09T15:55:45.998Z,3.10
2022-12-09T15:58:15.303Z,3.10
2022-12-09T16:00:48.744Z,3.00
2022-12-09T16:03:20.011Z,3.00
2022-12-09T16:06:08.334Z,3.00
2022-12-09T16:08:44.124Z,3.00
2022-12-09T16:11:12.198Z,3.00
2022-12-09T16:14:09.347Z,3.00
2022-12-09T16:17:01.482Z,3.00
2022-12-09T16:19:31.639Z,3.00
2022-12-09T16:22:05.071Z,2.90
2022-12-09T16:24:58.039Z,2.90
2022-12-09T16:27:23.101Z,2.90
2022-12-09T16:29:54.145Z,2.90
2022-12-09T16:32:34.306Z,2.90
2022-12-09T16:35:43.058Z,2.90
2022-12-09T16:38:09.812Z,2.90
2022-12-09T16:40:45.327Z,2.90
2022-12-09T16:43:18.283Z,2.90
2022-12-09T16:45:56.962Z,2.90
2022-12-09T16:48:26.612Z,2.90
2022-12-09T16:51:12.002Z,2.90
2022-12-09T16:53:50.069Z,2.90
2022-12-09T16:56:19.316Z,2.90
2022-12-09T16:58:46.591Z,2.90
2022-12-09T17:01:15.019Z,2.80
2022-12-09T17:03:50.044Z,2.90
2022-12-09T17:06:18.795Z,2.80
2022-12-09T17:08:45.852Z,2.90
2022-12-09T17:11:13.510Z,2.90
2022-12-09T17:13:40.797Z,2.90
2022-12-09T17:16:08.114Z,2.90
2022-12-09T17:18:35.164Z,2.90
2022-12-09T17:21:09.188Z,2.90
2022-12-09T17:23:40.081Z,2.90
2022-12-09T17:26:09.269Z,2.90
2022-12-09T17:28:37.156Z,2.90
2022-12-09T17:31:09.510Z,2.90
2022-12-09T17:33:36.947Z,2.90
2022-12-09T17:36:04.578Z,2.90
2022-12-09T17:38:31.454Z,2.90
2022-12-09T17:41:06.598Z,2.90
2022-12-09T17:43:33.849Z,2.90
2022-12-09T17:46:02.460Z,2.90
2022-12-09T17:48:30.644Z,2.90
2022-12-09T17:50:57.661Z,2.80
2022-12-09T17:53:24.911Z,2.80
2022-12-09T17:55:51.809Z,2.70
2022-12-09T17:58:18.669Z,2.80
2022-12-09T18:00:46.303Z,2.70
2022-12-09T18:03:17.802Z,2.70
2022-12-09T18:05:49.191Z,2.70
2022-12-09T18:08:16.163Z,2.60
2022-12-09T18:10:44.256Z,2.70
2022-12-09T18:13:11.053Z,2.60
2022-12-09T18:15:37.955Z,2.60
2022-12-09T18:18:05.355Z,2.60
2022-12-09T18:20:32.204Z,2.60
2022-12-09T18:22:59.011Z,2.60
2022-12-09T18:25:25.820Z,2.50
2022-12-09T18:27:52.656Z,2.50
2022-12-09T18:30:19.496Z,2.50
2022-12-09T18:32:46.501Z,2.40
2022-12-09T18:35:13.443Z,2.40
2022-12-09T18:37:40.256Z,2.30
2022-12-09T18:40:07.796Z,2.30
2022-12-09T18:42:34.840Z,2.20
2022-12-09T18:45:01.969Z,2.20
2022-12-09T18:47:28.833Z,2.20
2022-12-09T18:49:55.708Z,2.20
2022-12-09T18:52:23.410Z,2.20
2022-12-09T18:54:50.279Z,2.10
2022-12-09T18:57:17.110Z,2.20
2022-12-09T18:59:44.025Z,2.10
2022-12-09T19:02:11.868Z,2.10
2022-12-09T19:04:38.774Z,2.00
2022-12-09T19:07:05.675Z,2.00
2022-12-09T19:09:34.978Z,2.00
2022-12-09T19:12:30.034Z,1.90
2022-12-09T19:14:50.591Z,1.80
2022-12-09T19:17:18.830Z,1.90
2022-12-09T19:19:47.310Z,1.90
2022-12-09T19:22:14.650Z,1.80
2022-12-09T19:24:43.446Z,1.80
2022-12-09T19:27:10.899Z,1.80
2022-12-09T19:29:37.884Z,1.80
2022-12-09T19:32:13.882Z,1.80
2022-12-09T19:34:50.724Z,1.70
2022-12-09T19:37:17.562Z,1.70
2022-12-09T19:39:46.547Z,1.70
2022-12-09T19:42:13.409Z,1.70
2022-12-09T19:47:27.114Z,1.70
2022-12-09T19:49:53.963Z,1.70
2022-12-09T19:52:21.029Z,1.70
2022-12-09T19:54:47.916Z,1.70
2022-12-09T19:57:14.954Z,1.70
2022-12-09T19:59:41.790Z,1.70
2022-12-09T20:02:12.137Z,1.70
2022-12-09T20:04:48.859Z,1.70
2022-12-09T20:07:16.835Z,1.70
2022-12-09T20:09:43.724Z,1.70
2022-12-09T20:12:10.711Z,1.70
2022-12-09T20:14:38.955Z,1.70
2022-12-09T20:17:05.847Z,1.70
2022-12-09T20:19:32.812Z,1.70
2022-12-09T20:21:59.634Z,1.70
2022-12-09T20:24:26.850Z,1.80
2022-12-09T20:26:55.154Z,1.70
2022-12-09T20:29:21.977Z,1.80
2022-12-09T20:31:48.784Z,1.80
2022-12-09T20:34:16.672Z,1.80
2022-12-09T20:36:44.689Z,1.80
2022-12-09T20:39:15.200Z,1.80
2022-12-09T20:41:43.671Z,1.80
2022-12-09T20:44:12.052Z,1.90
2022-12-09T20:46:40.183Z,1.90
2022-12-09T20:49:07.603Z,1.90
2022-12-09T20:51:37.425Z,1.90
2022-12-09T20:54:05.529Z,1.90
2022-12-09T20:56:32.988Z,1.90
2022-12-09T20:59:00.390Z,1.90
2022-12-09T21:01:35.775Z,1.90
2022-12-09T21:04:05.333Z,1.90
2022-12-09T21:06:34.864Z,1.90
2022-12-09T21:09:03.434Z,1.90
2022-12-09T21:11:30.562Z,1.90
2022-12-09T21:13:59.547Z,1.90
2022-12-09T21:16:29.170Z,1.90
2022-12-09T21:18:58.692Z,1.90
2022-12-09T21:21:28.647Z,1.90
2022-12-09T21:23:55.645Z,2.00
2022-12-09T21:26:24.248Z,1.90
2022-12-09T21:28:52.151Z,1.90
2022-12-09T21:31:27.816Z,1.90
2022-12-09T21:33:56.904Z,1.90
2022-12-09T21:36:27.094Z,1.90
2022-12-09T21:38:54.627Z,1.90
2022-12-09T21:41:26.471Z,1.90
2022-12-09T21:43:55.070Z,1.90
2022-12-09T21:46:34.593Z,1.90
2022-12-09T21:49:04.323Z,1.90
2022-12-09T21:51:32.367Z,1.90
2022-12-09T21:53:59.443Z,2.00
2022-12-09T21:56:30.323Z,2.00
2022-12-09T21:58:59.023Z,1.90
2022-12-09T22:01:28.965Z,1.90
2022-12-09T22:03:56.946Z,1.90
2022-12-09T22:06:23.815Z,1.90
2022-12-09T22:08:51.113Z,1.90
2022-12-09T22:11:30.190Z,1.90
2022-12-09T22:14:01.236Z,1.90
2022-12-09T22:16:34.128Z,1.90
2022-12-09T22:19:02.700Z,1.80
2022-12-09T22:21:31.384Z,1.90
2022-12-09T22:24:00.816Z,1.90
2022-12-09T22:26:28.675Z,1.90
2022-12-09T22:28:56.905Z,1.90
2022-12-09T22:31:27.612Z,1.90
2022-12-09T22:33:58.786Z,1.80
2022-12-09T22:36:25.930Z,1.80
2022-12-09T22:38:53.725Z,1.80
2022-12-09T22:41:23.077Z,1.80
2022-12-09T22:43:50.786Z,1.80
2022-12-09T22:46:29.488Z,1.90
2022-12-09T22:48:58.040Z,1.80
2022-12-09T22:51:28.137Z,1.80
2022-12-09T22:53:56.732Z,1.80
2022-12-09T22:56:24.973Z,1.80
2022-12-09T22:58:52.358Z,1.80
2022-12-09T23:01:28.434Z,1.90
2022-12-09T23:03:56.330Z,1.80
2022-12-09T23:06:24.090Z,1.90
2022-12-09T23:08:51.500Z,1.90
2022-12-09T23:11:21.491Z,1.90
2022-12-09T23:13:49.007Z,1.80
2022-12-09T23:16:18.853Z,1.80
2022-12-09T23:18:45.929Z,1.70
2022-12-09T23:21:22.019Z,1.70
2022-12-09T23:23:51.734Z,1.70
2022-12-09T23:26:20.608Z,1.70
2022-12-09T23:28:50.539Z,1.70
2022-12-09T23:31:19.854Z,1.70
2022-12-09T23:33:47.867Z,1.70
2022-12-09T23:36:17.935Z,1.70
2022-12-09T23:38:45.999Z,1.70
2022-12-09T23:41:12.857Z,1.70
2022-12-09T23:43:39.790Z,1.70
2022-12-09T23:46:15.752Z,1.70
2022-12-09T23:48:44.264Z,1.70
2022-12-09T23:51:16.544Z,1.70
2022-12-09T23:53:44.537Z,1.70
2022-12-09T23:56:16.244Z,1.70
2022-12-09T23:58:43.364Z,1.70
